createdAt,value
2022-11-25T00:00:00.000Z,4.96
2022-11-25T00:15:00.000Z,4.75
2022-11-25T00:30:00.000Z,4.98
2022-11-25T00:45:00.000Z,5.05
2022-11-25T01:00:00.000Z,5.16
2022-11-25T01:15:00.000Z,5.2
2022-11-25T01:30:00.000Z,5.16
2022-11-25T01:45:00.000Z,5.24
2022-11-25T02:00:00.000Z,5.18
2022-11-25T02:15:00.000Z,5.33
2022-11-25T02:30:00.000Z,5.11
2022-11-25T02:45:00.000Z,5
2022-11-25T03:00:00.000Z,5.03
2022-11-25T03:15:00.000Z,4.76
2022-11-25T03:30:00.000Z,5.04
2022-11-25T03:45:00.000Z,5.66
2022-11-25T04:00:00.000Z,4.57
2022-11-25T04:15:00.000Z,4.06
2022-11-25T04:30:00.000Z,3.71
2022-11-25T04:45:00.000Z,3.52
2022-11-25T05:00:00.000Z,3.45
2022-11-25T05:15:00.000Z,3.84
2022-11-25T05:30:00.000Z,3.31
2022-11-25T05:45:00.000Z,3.22
2022-11-25T06:00:00.000Z,3.41
2022-11-25T06:30:00.000Z,3
2022-11-25T06:30:00.000Z,3.46
2022-11-25T06:45:00.000Z,3.68
2022-11-25T07:00:00.000Z,4.06
2022-11-25T07:30:00.000Z,3.32
2022-11-25T07:45:00.000Z,3.31
2022-11-25T08:00:00.000Z,3.22
2022-11-25T08:15:00.000Z,3.08
2022-11-25T08:30:00.000Z,3.13
2022-11-25T08:45:00.000Z,3.24
2022-11-25T09:00:00.000Z,3.45
2022-11-25T09:15:00.000Z,3.08
2022-11-25T09:30:00.000Z,3
2022-11-25T09:45:00.000Z,2.49
2022-11-25T10:00:00.000Z,1.8
2022-11-25T10:15:00.000Z,1.6
2022-11-25T10:30:00.000Z,1.76
2022-11-25T10:45:00.000Z,1.75
2022-11-25T11:00:00.000Z,2.32
2022-11-25T11:15:00.000Z,1.61
2022-11-25T11:30:00.000Z,1.84
2022-11-25T11:45:00.000Z,2.11
2022-11-25T12:00:00.000Z,1.48
2022-11-25T12:15:00.000Z,2.06
2022-11-25T12:30:00.000Z,3.95
2022-11-25T12:45:00.000Z,3.26
2022-11-25T13:00:00.000Z,4.41
2022-11-25T13:15:00.000Z,3.24
2022-11-25T13:30:00.000Z,3.21
2022-11-25T13:45:00.000Z,2.65
2022-11-25T14:00:00.000Z,2.93
2022-11-25T14:15:00.000Z,3.25
2022-11-25T14:30:00.000Z,2.99
2022-11-25T14:45:00.000Z,3.38
2022-11-25T15:00:00.000Z,3.29
2022-11-25T15:15:00.000Z,3.91
2022-11-25T15:30:00.000Z,3.36
2022-11-25T15:45:00.000Z,3.55
2022-11-25T16:00:00.000Z,4.25
2022-11-25T16:15:00.000Z,4.22
2022-11-25T16:30:00.000Z,4.6
2022-11-25T16:45:00.000Z,5.49
2022-11-25T17:00:00.000Z,4.82
2022-11-25T17:30:00.000Z,5.02
2022-11-25T17:45:00.000Z,6.47
2022-11-25T18:00:00.000Z,6.05
2022-11-25T18:15:00.000Z,9.53
2022-11-25T18:30:00.000Z,8.31
2022-11-25T18:45:00.000Z,8.67
2022-11-25T19:00:00.000Z,9.96
2022-11-25T19:15:00.000Z,9.07
2022-11-25T19:30:00.000Z,8.75
2022-11-25T19:45:00.000Z,12.28
2022-11-25T20:00:00.000Z,9.76
2022-11-25T20:15:00.000Z,9.55
2022-11-25T20:30:00.000Z,11.42
2022-11-25T20:45:00.000Z,12.67
2022-11-25T21:00:00.000Z,12.69
2022-11-25T21:15:00.000Z,10.82
2022-11-25T21:30:00.000Z,9.84
2022-11-25T21:45:00.000Z,10.54
2022-11-25T22:00:00.000Z,3.92
2022-11-25T22:15:00.000Z,2.96
2022-11-25T22:30:00.000Z,3.35
2022-11-25T22:45:00.000Z,6.65
2022-11-25T23:00:00.000Z,4.4
2022-11-25T23:15:00.000Z,2.78
2022-11-25T23:30:00.000Z,3.25
2022-11-25T23:45:00.000Z,4.24
